createdAt,value
2022-08-24T00:01:30.079Z,0.80
2022-08-24T00:03:57.677Z,2.63
2022-08-24T00:06:25.249Z,2.07
2022-08-24T00:08:52.822Z,0.83
2022-08-24T00:11:21.478Z,1.93
2022-08-24T00:13:49.053Z,3.00
2022-08-24T00:16:17.416Z,3.00
2022-08-24T00:18:45.383Z,2.87
2022-08-24T00:21:12.958Z,2.83
2022-08-24T00:23:40.531Z,1.57
2022-08-24T00:26:08.757Z,1.37
2022-08-24T00:28:36.319Z,1.73
2022-08-24T00:31:03.898Z,2.93
2022-08-24T00:33:32.423Z,3.50
2022-08-24T00:35:59.997Z,2.03
2022-08-24T00:38:27.749Z,1.87
2022-08-24T00:40:55.174Z,1.30
2022-08-24T00:43:22.735Z,2.40
2022-08-24T00:45:50.358Z,1.27
2022-08-24T00:48:23.904Z,1.37
2022-08-24T00:50:57.444Z,3.73
2022-08-24T00:53:28.022Z,1.60
2022-08-24T00:55:55.626Z,3.93
2022-08-24T00:58:23.199Z,3.45
2022-08-24T01:00:50.904Z,3.17
2022-08-24T01:03:18.384Z,2.53
2022-08-24T01:05:46.743Z,3.33
2022-08-24T01:08:14.308Z,3.23
2022-08-24T01:10:41.893Z,2.03
2022-08-24T01:13:09.455Z,1.50
2022-08-24T01:15:37.808Z,1.83
2022-08-24T01:18:23.675Z,1.27
2022-08-24T01:20:51.231Z,2.87
2022-08-24T01:23:37.355Z,1.40
2022-08-24T01:26:04.918Z,2.10
2022-08-24T01:28:32.486Z,2.53
2022-08-24T01:31:00.153Z,1.47
2022-08-24T01:33:27.671Z,2.53
2022-08-24T01:35:58.198Z,1.47
2022-08-24T01:38:25.802Z,2.37
2022-08-24T01:40:53.369Z,1.67
2022-08-24T01:43:20.960Z,2.43
2022-08-24T01:45:48.534Z,2.20
2022-08-24T01:48:22.799Z,4.60
2022-08-24T01:50:43.643Z,1.47
2022-08-24T01:53:11.533Z,3.53
2022-08-24T01:55:39.087Z,2.83
2022-08-24T01:58:06.672Z,2.67
2022-08-24T02:00:34.284Z,2.73
2022-08-24T02:03:02.146Z,2.07
2022-08-24T02:05:29.428Z,1.23
2022-08-24T02:07:57.011Z,2.27
2022-08-24T02:10:24.576Z,3.23
2022-08-24T02:12:52.150Z,2.97
2022-08-24T02:15:20.601Z,2.08
2022-08-24T02:17:48.180Z,1.80
2022-08-24T02:20:15.742Z,1.73
2022-08-24T02:22:43.335Z,1.33
2022-08-24T02:25:10.919Z,4.00
2022-08-24T02:27:38.503Z,1.30
2022-08-24T02:30:06.471Z,2.10
2022-08-24T02:32:34.037Z,6.87
2022-08-24T02:35:01.622Z,3.03
2022-08-24T02:37:29.213Z,2.20
2022-08-24T02:39:56.814Z,2.03
2022-08-24T02:42:24.334Z,2.77
2022-08-24T02:44:51.936Z,3.17
2022-08-24T02:47:19.500Z,1.57
2022-08-24T02:49:47.074Z,3.47
2022-08-24T02:52:14.648Z,4.30
2022-08-24T02:54:42.981Z,2.10
2022-08-24T02:57:10.555Z,2.20
2022-08-24T02:59:38.425Z,2.13
2022-08-24T03:02:06.019Z,1.70
2022-08-24T03:04:33.606Z,2.70
2022-08-24T03:07:01.503Z,3.17
2022-08-24T03:09:29.095Z,1.93
2022-08-24T03:11:56.652Z,2.80
2022-08-24T03:14:24.245Z,4.03
2022-08-24T03:16:51.830Z,2.00
2022-08-24T03:19:19.404Z,4.90
2022-08-24T03:21:48.140Z,2.07
2022-08-24T03:24:15.704Z,1.20
2022-08-24T03:26:44.341Z,2.23
2022-08-24T03:29:10.852Z,2.53
2022-08-24T03:31:38.427Z,1.90
2022-08-24T03:34:06.001Z,3.57
2022-08-24T03:36:33.860Z,1.90
2022-08-24T03:39:01.424Z,1.97
2022-08-24T03:41:29.009Z,2.37
2022-08-24T03:43:56.605Z,3.20
2022-08-24T03:46:25.238Z,2.45
2022-08-24T03:48:52.508Z,1.93
2022-08-24T03:51:20.093Z,1.50
2022-08-24T03:53:48.425Z,2.30
2022-08-24T03:56:15.979Z,1.73
2022-08-24T03:58:43.594Z,2.00
2022-08-24T04:01:11.981Z,3.37
2022-08-24T04:03:39.502Z,1.73
2022-08-24T04:06:07.588Z,2.57
2022-08-24T04:08:35.164Z,2.47
2022-08-24T04:11:03.497Z,1.80
2022-08-24T04:13:33.503Z,2.37
2022-08-24T04:16:12.865Z,2.33
2022-08-24T04:18:40.375Z,3.07
2022-08-24T04:21:07.942Z,3.35
2022-08-24T04:23:46.761Z,4.37
2022-08-24T04:26:03.128Z,2.20
2022-08-24T04:28:30.682Z,3.40
2022-08-24T04:30:58.254Z,3.30
2022-08-24T04:33:26.616Z,2.43
2022-08-24T04:35:54.179Z,3.57
2022-08-24T04:38:21.746Z,4.60
2022-08-24T04:40:49.707Z,2.37
2022-08-24T04:43:19.939Z,3.20
2022-08-24T04:45:44.861Z,4.10
2022-08-24T04:48:12.410Z,3.70
2022-08-24T04:50:39.966Z,4.28
2022-08-24T04:53:08.298Z,4.57
2022-08-24T04:55:36.777Z,3.67
2022-08-24T04:58:04.371Z,7.70
2022-08-24T05:00:31.952Z,7.83
2022-08-24T05:02:59.577Z,5.70
2022-08-24T05:05:27.094Z,5.73
2022-08-24T05:07:56.571Z,5.90
2022-08-24T05:10:22.255Z,3.87
2022-08-24T05:12:49.848Z,2.80
2022-08-24T05:15:18.229Z,4.32
2022-08-24T05:17:49.932Z,4.80
2022-08-24T05:20:13.334Z,5.80
2022-08-24T05:22:40.898Z,8.53
2022-08-24T05:25:08.495Z,11.35
2022-08-24T05:27:36.079Z,15.80
2022-08-24T05:30:03.664Z,9.13
2022-08-24T05:32:31.259Z,4.73
2022-08-24T05:34:59.584Z,4.93
2022-08-24T05:37:27.160Z,7.03
2022-08-24T05:39:54.794Z,5.50
2022-08-24T05:42:22.304Z,16.23
2022-08-24T05:44:49.898Z,10.33
2022-08-24T05:47:17.453Z,12.80
2022-08-24T05:49:45.023Z,8.37
2022-08-24T05:52:12.591Z,5.47
2022-08-24T05:54:40.174Z,6.73
2022-08-24T05:57:07.734Z,5.77
2022-08-24T05:59:35.318Z,6.33
2022-08-24T06:02:03.095Z,3.60
2022-08-24T06:04:30.532Z,7.00
2022-08-24T06:06:58.118Z,7.50
2022-08-24T06:09:25.724Z,6.93
2022-08-24T06:11:53.281Z,5.50
2022-08-24T06:14:25.099Z,5.07
2022-08-24T06:16:48.932Z,5.30
2022-08-24T06:19:16.296Z,8.80
2022-08-24T06:21:43.877Z,6.70
2022-08-24T06:24:11.530Z,7.67
2022-08-24T06:26:56.896Z,7.28
2022-08-24T06:29:24.499Z,11.00
2022-08-24T06:31:54.560Z,13.65
2022-08-24T06:34:20.404Z,12.53
2022-08-24T06:36:48.896Z,15.43
2022-08-24T06:39:16.491Z,10.83
2022-08-24T06:41:44.815Z,18.30
2022-08-24T06:44:12.407Z,6.30
2022-08-24T06:46:40.015Z,8.07
2022-08-24T06:49:08.283Z,9.70
2022-08-24T06:51:36.183Z,8.27
2022-08-24T06:54:03.748Z,4.57
2022-08-24T06:56:31.319Z,6.23
2022-08-24T06:58:58.943Z,8.30
2022-08-24T07:01:26.596Z,14.18
2022-08-24T07:03:54.111Z,8.67
2022-08-24T07:06:22.612Z,9.70
2022-08-24T07:08:50.944Z,13.63
2022-08-24T07:11:18.511Z,20.83
2022-08-24T07:13:46.132Z,15.77
2022-08-24T07:16:13.730Z,9.15
2022-08-24T07:18:42.017Z,15.53
2022-08-24T07:21:08.903Z,12.03
2022-08-24T07:23:41.766Z,12.43
2022-08-24T07:26:09.962Z,7.70
2022-08-24T07:28:38.364Z,6.50
2022-08-24T07:31:05.967Z,13.97
2022-08-24T07:33:33.512Z,9.63
2022-08-24T07:36:02.905Z,6.00
2022-08-24T07:38:30.481Z,8.03
2022-08-24T07:41:20.321Z,5.33
2022-08-24T07:43:26.001Z,6.03
2022-08-24T07:45:53.646Z,5.33
2022-08-24T07:48:21.151Z,6.53
2022-08-24T07:50:48.762Z,6.43
2022-08-24T07:53:18.322Z,10.00
2022-08-24T07:55:45.814Z,5.13
2022-08-24T07:58:12.030Z,6.60
2022-08-24T08:00:39.600Z,7.40
2022-08-24T08:03:07.498Z,4.27
2022-08-24T08:05:34.773Z,2.90
2022-08-24T08:08:02.536Z,6.30
2022-08-24T08:10:29.980Z,4.37
2022-08-24T08:12:57.583Z,3.63
2022-08-24T08:15:25.204Z,5.60
2022-08-24T08:18:02.877Z,3.43
2022-08-24T08:20:20.409Z,7.17
2022-08-24T08:23:06.178Z,3.67
2022-08-24T08:25:33.758Z,3.37
2022-08-24T08:28:08.024Z,4.40
2022-08-24T08:30:28.916Z,6.30
2022-08-24T08:32:57.522Z,4.03
2022-08-24T08:35:25.059Z,8.77
2022-08-24T08:37:52.633Z,4.47
2022-08-24T08:40:20.351Z,5.23
2022-08-24T08:42:57.156Z,5.10
2022-08-24T08:45:27.823Z,4.83
2022-08-24T08:48:22.859Z,6.33
2022-08-24T08:50:56.697Z,3.57
2022-08-24T08:53:54.675Z,9.30
2022-08-24T08:56:46.223Z,5.27
2022-08-24T08:59:20.473Z,7.20
2022-08-24T09:02:00.306Z,5.10
2022-08-24T09:04:30.739Z,5.50
2022-08-24T09:07:01.155Z,5.70
2022-08-24T09:09:50.524Z,12.60
2022-08-24T09:12:51.723Z,11.60
2022-08-24T09:15:47.449Z,7.97
2022-08-24T09:18:39.459Z,15.53
2022-08-24T09:21:31.392Z,7.67
2022-08-24T09:23:59.727Z,6.97
2022-08-24T09:26:29.672Z,5.07
2022-08-24T09:29:15.660Z,4.93
2022-08-24T09:31:58.031Z,3.80
2022-08-24T09:34:51.029Z,4.20
2022-08-24T09:37:18.592Z,5.07
2022-08-24T09:40:01.125Z,6.83
2022-08-24T09:42:28.693Z,5.90
2022-08-24T09:45:14.654Z,3.90
2022-08-24T09:48:00.138Z,3.28
2022-08-24T09:50:27.727Z,4.57
2022-08-24T09:53:32.115Z,4.70
2022-08-24T09:56:02.275Z,5.55
2022-08-24T09:58:50.969Z,9.50
2022-08-24T10:01:23.783Z,5.30
2022-08-24T10:03:53.669Z,3.60
2022-08-24T10:06:26.865Z,10.20
2022-08-24T10:09:09.547Z,6.40
2022-08-24T10:11:37.108Z,5.80
2022-08-24T10:14:19.569Z,3.73
2022-08-24T10:16:50.192Z,5.00
2022-08-24T10:19:17.711Z,8.20
2022-08-24T10:21:45.315Z,7.13
2022-08-24T10:24:29.850Z,11.95
2022-08-24T10:26:54.928Z,7.00
2022-08-24T10:29:43.005Z,4.87
2022-08-24T10:32:32.020Z,3.27
2022-08-24T10:35:14.856Z,6.47
2022-08-24T10:38:21.853Z,2.58
2022-08-24T10:41:04.256Z,2.77
2022-08-24T10:43:43.418Z,3.10
2022-08-24T10:46:28.697Z,5.40
2022-08-24T10:49:05.319Z,5.60
2022-08-24T10:51:47.669Z,4.67
2022-08-24T10:54:15.251Z,5.43
2022-08-24T10:57:16.234Z,3.20
2022-08-24T10:59:55.880Z,4.50
2022-08-24T11:02:29.295Z,3.07
2022-08-24T11:04:56.804Z,5.13
2022-08-24T11:07:24.477Z,3.00
2022-08-24T11:09:54.492Z,4.67
2022-08-24T11:12:24.755Z,5.60
2022-08-24T11:14:52.377Z,3.90
2022-08-24T11:17:19.943Z,4.73
2022-08-24T11:19:47.496Z,3.27
2022-08-24T11:22:34.014Z,8.53
2022-08-24T11:25:22.306Z,2.90
2022-08-24T11:27:50.656Z,3.40
2022-08-24T11:30:18.252Z,3.03
2022-08-24T11:32:57.630Z,6.23
2022-08-24T11:35:27.833Z,3.85
2022-08-24T11:37:55.397Z,5.87
2022-08-24T11:40:23.117Z,5.17
2022-08-24T11:43:20.858Z,2.97
2022-08-24T11:45:56.884Z,3.53
2022-08-24T11:48:48.294Z,7.65
2022-08-24T11:51:28.169Z,4.87
2022-08-24T11:54:16.535Z,3.17
2022-08-24T11:56:46.758Z,3.47
2022-08-24T11:59:32.654Z,3.90
2022-08-24T12:02:07.166Z,3.67
2022-08-24T12:04:37.403Z,3.40
2022-08-24T12:07:10.750Z,3.28
2022-08-24T12:09:54.530Z,5.77
2022-08-24T12:12:34.024Z,3.83
2022-08-24T12:15:10.813Z,6.40
2022-08-24T12:17:38.388Z,10.00
2022-08-24T12:20:30.473Z,4.83
2022-08-24T12:22:58.824Z,4.43
2022-08-24T12:25:44.931Z,6.30
2022-08-24T12:28:12.563Z,2.97
2022-08-24T12:30:40.087Z,2.43
2022-08-24T12:33:07.691Z,5.50
2022-08-24T12:35:35.254Z,4.37
2022-08-24T12:38:08.615Z,6.07
2022-08-24T12:40:48.280Z,4.83
2022-08-24T12:43:36.670Z,5.73
2022-08-24T12:46:05.030Z,5.10
2022-08-24T12:48:35.342Z,6.73
2022-08-24T12:51:11.651Z,3.90
2022-08-24T12:53:51.754Z,6.77
2022-08-24T12:56:25.085Z,5.17
2022-08-24T12:59:29.837Z,3.45
2022-08-24T13:01:57.568Z,3.33
2022-08-24T13:04:43.524Z,3.03
2022-08-24T13:07:20.118Z,4.27
2022-08-24T13:09:47.685Z,3.53
2022-08-24T13:12:33.503Z,3.50
2022-08-24T13:15:19.509Z,3.00
2022-08-24T13:17:47.980Z,5.90
2022-08-24T13:20:15.553Z,4.43
2022-08-24T13:22:46.190Z,4.93
2022-08-24T13:25:19.812Z,2.50
2022-08-24T13:27:47.392Z,5.33
2022-08-24T13:30:20.839Z,5.07
2022-08-24T13:32:49.575Z,4.05
2022-08-24T13:35:41.101Z,2.97
2022-08-24T13:38:32.601Z,2.33
2022-08-24T13:41:09.011Z,4.87
2022-08-24T13:43:36.571Z,8.73
2022-08-24T13:46:22.577Z,4.30
2022-08-24T13:48:53.628Z,4.70
2022-08-24T13:51:45.728Z,5.20
2022-08-24T13:54:28.367Z,3.67
2022-08-24T13:57:02.184Z,4.12
2022-08-24T13:59:39.486Z,6.20
2022-08-24T14:02:07.129Z,3.37
2022-08-24T14:04:34.654Z,3.35
2022-08-24T14:07:24.018Z,5.37
2022-08-24T14:10:03.624Z,3.73
2022-08-24T14:12:31.259Z,2.80
2022-08-24T14:15:17.746Z,3.93
2022-08-24T14:17:55.652Z,4.12
2022-08-24T14:20:49.709Z,4.10
2022-08-24T14:23:35.104Z,3.72
2022-08-24T14:26:39.040Z,4.73
2022-08-24T14:29:16.168Z,2.55
2022-08-24T14:32:08.414Z,5.78
2022-08-24T14:34:28.260Z,6.45
2022-08-24T14:37:01.267Z,4.65
2022-08-24T14:39:50.244Z,2.42
2022-08-24T14:42:42.112Z,3.62
2022-08-24T14:45:09.824Z,2.67
2022-08-24T14:47:46.348Z,5.03
2022-08-24T14:50:17.713Z,2.17
2022-08-24T14:52:52.121Z,4.87
2022-08-24T14:55:35.301Z,4.18
2022-08-24T14:58:23.713Z,4.07
2022-08-24T15:01:07.973Z,4.72
2022-08-24T15:03:56.775Z,2.90
2022-08-24T15:06:48.720Z,4.78
2022-08-24T15:09:19.268Z,4.00
2022-08-24T15:11:46.860Z,4.85
2022-08-24T15:14:23.168Z,3.87
2022-08-24T15:16:54.343Z,2.60
2022-08-24T15:19:30.341Z,3.80
2022-08-24T15:22:03.441Z,4.07
2022-08-24T15:24:36.733Z,4.37
2022-08-24T15:27:07.093Z,2.42
2022-08-24T15:29:34.655Z,3.50
2022-08-24T15:32:08.223Z,4.30
2022-08-24T15:34:38.843Z,2.75
2022-08-24T15:37:06.410Z,4.47
2022-08-24T15:39:33.991Z,3.67
2022-08-24T15:42:01.566Z,3.30
2022-08-24T15:44:29.139Z,5.05
2022-08-24T15:46:57.088Z,3.83
2022-08-24T15:49:24.730Z,2.92
2022-08-24T15:51:52.286Z,5.00
2022-08-24T15:54:31.163Z,3.00
2022-08-24T15:57:05.127Z,3.37
2022-08-24T15:59:32.682Z,3.08
2022-08-24T16:02:27.110Z,3.42
2022-08-24T16:05:24.720Z,3.50
2022-08-24T16:08:05.160Z,3.30
2022-08-24T16:10:41.936Z,3.67
2022-08-24T16:13:12.925Z,3.10
2022-08-24T16:15:49.450Z,4.43
2022-08-24T16:18:17.043Z,3.87
2022-08-24T16:20:44.638Z,2.72
2022-08-24T16:23:12.201Z,5.28
2022-08-24T16:25:42.917Z,6.28
2022-08-24T16:28:13.079Z,5.35
2022-08-24T16:30:46.434Z,4.85
2022-08-24T16:33:32.371Z,2.80
2022-08-24T16:36:00.782Z,3.42
2022-08-24T16:38:28.327Z,3.47
2022-08-24T16:41:01.573Z,3.97
2022-08-24T16:43:29.166Z,3.47
2022-08-24T16:45:57.526Z,3.53
2022-08-24T16:48:25.072Z,2.30
2022-08-24T16:50:52.666Z,7.03
2022-08-24T16:53:20.988Z,3.00
2022-08-24T16:55:48.544Z,5.75
2022-08-24T16:58:16.157Z,5.70
2022-08-24T17:00:43.880Z,4.00
2022-08-24T17:03:14.760Z,4.37
2022-08-24T17:05:38.879Z,3.35
2022-08-24T17:08:06.493Z,4.53
2022-08-24T17:10:37.805Z,4.00
2022-08-24T17:13:01.622Z,5.25
2022-08-24T17:15:29.294Z,2.58
2022-08-24T17:17:59.615Z,4.53
2022-08-24T17:20:28.125Z,3.50
2022-08-24T17:22:55.693Z,6.05
2022-08-24T17:25:23.263Z,2.78
2022-08-24T17:27:50.879Z,3.08
2022-08-24T17:30:19.200Z,3.83
2022-08-24T17:32:46.745Z,3.00
2022-08-24T17:35:14.367Z,4.25
2022-08-24T17:37:42.680Z,2.70
2022-08-24T17:40:13.157Z,3.05
2022-08-24T17:42:50.822Z,3.62
2022-08-24T17:45:09.293Z,4.80
2022-08-24T17:47:36.845Z,4.12
2022-08-24T17:50:06.402Z,3.20
2022-08-24T17:52:32.270Z,6.78
2022-08-24T17:54:59.824Z,4.97
2022-08-24T17:57:27.409Z,5.12
2022-08-24T17:59:55.048Z,2.58
2022-08-24T18:02:22.576Z,5.00
2022-08-24T18:04:50.966Z,5.07
2022-08-24T18:07:35.835Z,6.73
2022-08-24T18:09:46.824Z,3.85
2022-08-24T18:12:14.429Z,4.23
2022-08-24T18:14:41.997Z,5.27
2022-08-24T18:17:09.578Z,3.43
2022-08-24T18:19:37.170Z,2.77
2022-08-24T18:22:04.744Z,3.10
2022-08-24T18:24:32.313Z,4.70
2022-08-24T18:26:59.913Z,2.63
2022-08-24T18:29:27.486Z,4.30
2022-08-24T18:31:55.086Z,4.73
2022-08-24T18:34:22.694Z,5.10
2022-08-24T18:36:50.277Z,3.47
2022-08-24T18:39:17.832Z,6.10
2022-08-24T18:41:49.471Z,3.93
2022-08-24T18:44:13.383Z,2.63
2022-08-24T18:46:40.593Z,4.50
2022-08-24T18:49:08.205Z,5.00
2022-08-24T18:51:35.780Z,3.07
2022-08-24T18:54:21.678Z,2.87
2022-08-24T18:56:49.231Z,7.07
2022-08-24T18:59:16.784Z,5.57
2022-08-24T19:02:02.417Z,8.13
2022-08-24T19:04:32.952Z,8.17
2022-08-24T19:06:57.456Z,3.73
2022-08-24T19:09:26.727Z,7.93
2022-08-24T19:11:53.542Z,5.13
2022-08-24T19:14:21.094Z,8.97
2022-08-24T19:16:48.750Z,4.87
2022-08-24T19:19:16.318Z,4.70
2022-08-24T19:21:43.885Z,5.27
2022-08-24T19:24:11.461Z,6.35
2022-08-24T19:26:39.792Z,4.07
2022-08-24T19:29:07.336Z,4.47
2022-08-24T19:31:35.046Z,6.53
2022-08-24T19:34:03.452Z,9.40
2022-08-24T19:36:30.109Z,14.77
2022-08-24T19:38:57.741Z,14.87
2022-08-24T19:41:36.325Z,17.20
2022-08-24T19:43:56.474Z,6.73
2022-08-24T19:46:24.150Z,9.13
2022-08-24T19:48:51.643Z,7.03
2022-08-24T19:51:19.216Z,8.63
2022-08-24T19:53:47.607Z,5.37
2022-08-24T19:56:15.949Z,4.93
2022-08-24T19:58:46.557Z,5.13
2022-08-24T20:01:14.175Z,4.27
2022-08-24T20:03:41.707Z,3.77
2022-08-24T20:06:09.259Z,3.72
2022-08-24T20:08:36.872Z,5.32
2022-08-24T20:11:04.401Z,4.00
2022-08-24T20:13:31.972Z,3.70
2022-08-24T20:15:59.946Z,4.68
2022-08-24T20:18:27.484Z,4.47
2022-08-24T20:20:55.069Z,5.60
2022-08-24T20:23:23.458Z,5.82
2022-08-24T20:25:51.781Z,6.10
2022-08-24T20:28:37.976Z,4.43
2022-08-24T20:30:46.990Z,6.17
2022-08-24T20:33:14.574Z,6.87
2022-08-24T20:35:42.151Z,6.63
2022-08-24T20:38:09.751Z,4.00
2022-08-24T20:40:37.335Z,3.67
2022-08-24T20:43:05.080Z,10.37
2022-08-24T20:45:32.503Z,4.80
2022-08-24T20:48:00.077Z,6.13
2022-08-24T20:50:28.429Z,5.10
2022-08-24T20:52:56.003Z,6.17
2022-08-24T20:55:24.335Z,6.05
2022-08-24T20:57:51.901Z,6.27
2022-08-24T21:00:19.503Z,9.67
2022-08-24T21:02:47.087Z,7.17
2022-08-24T21:05:14.662Z,4.17
2022-08-24T21:07:42.256Z,5.67
2022-08-24T21:10:09.820Z,5.47
2022-08-24T21:12:37.396Z,5.30
2022-08-24T21:15:05.007Z,4.20
2022-08-24T21:17:32.592Z,6.70
2022-08-24T21:20:00.185Z,4.47
2022-08-24T21:22:27.789Z,6.82
2022-08-24T21:24:55.363Z,8.20
2022-08-24T21:27:22.937Z,7.10
2022-08-24T21:29:50.551Z,10.30
2022-08-24T21:32:36.343Z,6.68
2022-08-24T21:35:04.260Z,7.57
2022-08-24T21:37:31.823Z,4.83
2022-08-24T21:39:59.438Z,5.70
2022-08-24T21:42:27.001Z,5.18
2022-08-24T21:44:54.585Z,4.57
2022-08-24T21:47:22.149Z,7.03
2022-08-24T21:49:49.802Z,4.10
2022-08-24T21:52:17.368Z,5.77
2022-08-24T21:54:44.931Z,5.53
2022-08-24T21:57:13.430Z,4.13
2022-08-24T21:59:40.986Z,6.03
2022-08-24T22:02:08.606Z,6.22
2022-08-24T22:04:36.184Z,4.72
2022-08-24T22:07:03.758Z,4.97
2022-08-24T22:09:31.333Z,4.73
2022-08-24T22:12:01.438Z,5.83
2022-08-24T22:14:29.021Z,5.67
2022-08-24T22:16:56.605Z,4.13
2022-08-24T22:19:25.893Z,4.73
2022-08-24T22:21:53.478Z,6.53
2022-08-24T22:24:21.829Z,5.95
2022-08-24T22:26:49.452Z,6.77
2022-08-24T22:29:17.016Z,5.07
2022-08-24T22:31:44.627Z,4.33
2022-08-24T22:34:12.223Z,4.77
2022-08-24T22:36:39.817Z,4.13
2022-08-24T22:39:07.371Z,4.30
2022-08-24T22:41:34.996Z,4.83
2022-08-24T22:44:20.341Z,10.17
2022-08-24T22:46:56.609Z,6.23
2022-08-24T22:49:27.630Z,4.50
2022-08-24T22:51:55.184Z,4.97
2022-08-24T22:54:22.788Z,4.67
2022-08-24T22:56:50.354Z,8.13
2022-08-24T22:59:32.982Z,5.30
2022-08-24T23:02:00.648Z,4.20
2022-08-24T23:04:28.118Z,4.50
2022-08-24T23:06:55.723Z,6.43
2022-08-24T23:09:23.295Z,9.20
2022-08-24T23:11:51.640Z,4.43
2022-08-24T23:14:19.263Z,5.17
2022-08-24T23:16:46.866Z,7.73
2022-08-24T23:19:32.853Z,5.97
2022-08-24T23:22:00.457Z,6.37
2022-08-24T23:24:28.011Z,4.53
2022-08-24T23:26:55.615Z,4.47
2022-08-24T23:29:23.159Z,6.87
2022-08-24T23:31:50.724Z,7.43
2022-08-24T23:34:18.328Z,5.07
2022-08-24T23:36:45.891Z,7.00
2022-08-24T23:39:13.455Z,7.80
2022-08-24T23:41:42.538Z,7.20
2022-08-24T23:44:13.016Z,5.27
2022-08-24T23:46:40.634Z,5.57
2022-08-24T23:49:08.166Z,4.23
2022-08-24T23:51:35.747Z,8.17
2022-08-24T23:54:03.332Z,5.70
2022-08-24T23:56:31.745Z,6.07
2022-08-24T23:59:01.257Z,5.33
